Terminal Aerodrome Forecast
Issued by NWS

Home | Current Version | Previous Version | Text Only | Print | Product List | Glossary Off
Versions: 1 2 3 4 5 6 7 8 9 10 11 12 13 14 15 16 17

000
FTUS43 KMPX 012336
TAFAXN
TAF
KAXN 012336Z 0200/0224 29013G18KT 6SM -SN BKN030
     FM020200 29009KT P6SM FEW030 SCT250
     FM021300 18006KT P6SM SCT100
     FM022100 16018G25KT P6SM FEW070 OVC100=

USA.gov is the U.S. government's official web portal to all federal, state and local government web resources and services.